Time;durP1;ratioP1;P1;durP2;ratioP2;P2;SDS_P1;SDS_P2;PMS_P1;PMS_P2;Temp;Humidity;BMP_temperature;BMP_pressure;BME280_temperature;BME280_humidity;BME280_pressure;Samples;Min_cycle;Max_cycle;Signal;HPM_P1;HPM_P2
2021/12/21 00:00:32;;;;;;;10.30;5.43;;;-1.20;99.90;;;;;;5095734;28;20192;-78
2021/12/21 00:02:58;;;;;;;12.13;5.73;;;-1.20;99.90;;;;;;5094871;28;20192;-79
2021/12/21 00:05:28;;;;;;;13.37;5.60;;;-1.30;99.90;;;;;;5067284;28;20194;-79
2021/12/21 00:07:55;;;;;;;14.83;5.17;;;-1.30;99.90;;;;;;5076613;28;20201;-78
2021/12/21 00:10:26;;;;;;;11.90;5.27;;;-1.20;99.90;;;;;;5076494;28;20177;-79
2021/12/21 00:15:37;;;;;;;13.97;5.13;;;-1.30;99.90;;;;;;5076871;28;20184;-78
2021/12/21 00:20:47;;;;;;;10.63;4.93;;;-1.30;99.90;;;;;;5076026;28;20208;-79
2021/12/21 00:25:45;;;;;;;13.80;4.97;;;-1.40;99.90;;;;;;5076331;28;20256;-78
2021/12/21 00:28:10;;;;;;;11.87;4.37;;;-1.40;99.90;;;;;;5058167;28;20206;-79
2021/12/21 00:30:36;;;;;;;9.50;4.70;;;-1.40;99.90;;;;;;5076150;28;20317;-79
2021/12/21 00:33:01;;;;;;;12.23;5.00;;;-1.40;99.90;;;;;;5075162;28;20189;-78
2021/12/21 00:35:27;;;;;;;7.20;4.37;;;-1.40;99.90;;;;;;5075744;28;20646;-78
2021/12/21 00:37:53;;;;;;;6.53;4.47;;;-1.40;99.90;;;;;;5077033;28;20181;-78
2021/12/21 00:40:19;;;;;;;13.13;5.17;;;-1.40;99.90;;;;;;5067933;28;20188;-78
2021/12/21 00:42:44;;;;;;;14.93;4.23;;;-1.40;99.90;;;;;;5075709;28;20671;-79
2021/12/21 00:45:10;;;;;;;11.53;5.07;;;-1.40;99.90;;;;;;5057464;28;20184;-79
2021/12/21 00:47:41;;;;;;;8.53;4.60;;;-1.40;99.90;;;;;;5057784;28;20218;-78
2021/12/21 00:50:15;;;;;;;8.47;4.57;;;-1.40;99.90;;;;;;5075246;28;20253;-78
2021/12/21 00:52:41;;;;;;;8.80;4.83;;;-1.40;99.90;;;;;;5096606;23;20232;-77
2021/12/21 00:55:07;;;;;;;6.73;4.27;;;-1.50;99.90;;;;;;5040129;28;20242;-77
2021/12/21 00:57:32;;;;;;;7.87;4.33;;;-1.50;99.90;;;;;;5039691;28;20679;-76
2021/12/21 00:59:58;;;;;;;12.50;4.57;;;-1.50;99.90;;;;;;5058222;28;20196;-77
2021/12/21 01:02:24;;;;;;;7.23;3.87;;;-1.60;99.90;;;;;;5057369;28;20205;-77
2021/12/21 01:04:50;;;;;;;10.40;4.63;;;-1.60;99.90;;;;;;5057676;28;20185;-76
2021/12/21 01:07:23;;;;;;;12.07;4.80;;;-1.70;99.90;;;;;;5057532;28;20181;-77
2021/12/21 01:10:39;;;;;;;7.73;4.17;;;-1.70;99.90;;;;;;5040194;28;20231;-77
2021/12/21 01:18:13;;;;;;;10.50;4.17;;;-1.80;99.90;;;;;;5057124;28;20616;-78
2021/12/21 01:21:28;;;;;;;12.00;4.50;;;-1.80;99.90;;;;;;5039625;28;20190;-77
2021/12/21 01:26:02;;;;;;;10.07;4.13;;;-1.80;99.90;;;;;;5057715;28;20542;-76
2021/12/21 01:28:41;;;;;;;7.93;3.83;;;-1.80;99.90;;;;;;5057680;28;20197;-76
2021/12/21 01:42:15;;;;;;;12.17;4.13;;;-2.00;99.90;;;;;;5035543;28;20292;-76
2021/12/21 01:49:54;;;;;;;10.00;4.13;;;-2.00;99.90;;;;;;5061356;28;20218;-76
2021/12/21 01:52:23;;;;;;;7.07;3.73;;;-2.10;99.90;;;;;;5043794;28;20212;-77
2021/12/21 01:54:49;;;;;;;6.13;3.33;;;-2.10;99.90;;;;;;5060371;28;20603;-77
2021/12/21 01:57:16;;;;;;;9.07;4.23;;;-2.10;99.90;;;;;;5043153;28;20229;-76
2021/12/21 01:59:43;;;;;;;8.47;4.00;;;-2.10;99.90;;;;;;5042791;28;20185;-76
2021/12/21 02:02:11;;;;;;;7.60;3.80;;;-2.10;99.90;;;;;;5043120;28;20201;-76
2021/12/21 02:04:38;;;;;;;7.30;3.93;;;-2.20;99.90;;;;;;5061377;28;20199;-77
2021/12/21 02:07:05;;;;;;;7.83;3.87;;;-2.20;99.90;;;;;;5041928;28;20211;-76
2021/12/21 02:09:41;;;;;;;10.67;4.20;;;-2.20;99.90;;;;;;5059727;28;20346;-76
2021/12/21 02:12:20;;;;;;;8.27;4.13;;;-2.20;99.90;;;;;;5061293;28;20225;-76
2021/12/21 02:14:53;;;;;;;9.80;3.67;;;-2.30;99.90;;;;;;5043032;28;20240;-76
2021/12/21 02:20:22;;;;;;;7.27;3.90;;;-2.30;99.90;;;;;;5061260;28;20164;-76
2021/12/21 02:22:56;;;;;;;8.17;3.67;;;-2.40;99.90;;;;;;5042012;28;20203;-76
2021/12/21 02:28:09;;;;;;;6.93;3.73;;;-2.40;99.90;;;;;;5060730;28;20189;-77
2021/12/21 02:30:37;;;;;;;12.40;3.90;;;-2.40;99.90;;;;;;5042216;28;20526;-76
2021/12/21 02:33:03;;;;;;;12.10;4.00;;;-2.30;99.90;;;;;;5042569;28;20195;-77
2021/12/21 02:35:28;;;;;;;5.87;3.63;;;-2.30;99.90;;;;;;5060496;28;20180;-77
2021/12/21 02:37:54;;;;;;;11.00;3.93;;;-2.30;99.90;;;;;;5060200;28;20202;-77
2021/12/21 02:40:19;;;;;;;9.27;3.70;;;-2.30;99.90;;;;;;5042282;28;20548;-77
2021/12/21 02:42:45;;;;;;;8.10;3.53;;;-2.30;99.90;;;;;;5060078;28;20207;-78
2021/12/21 02:45:11;;;;;;;6.07;3.40;;;-2.30;99.90;;;;;;5059827;28;20176;-77
2021/12/21 02:47:37;;;;;;;7.90;3.70;;;-2.30;99.90;;;;;;5059439;28;20668;-77
2021/12/21 02:50:03;;;;;;;6.03;3.27;;;-2.30;99.90;;;;;;5041811;28;20220;-77
2021/12/21 02:52:29;;;;;;;5.10;3.67;;;-2.30;99.90;;;;;;5059011;28;20223;-77
2021/12/21 02:54:55;;;;;;;6.57;4.03;;;-2.40;99.90;;;;;;5042195;28;20198;-77
2021/12/21 02:57:20;;;;;;;8.00;3.50;;;-2.30;99.90;;;;;;5041016;28;20191;-77
2021/12/21 02:59:46;;;;;;;8.63;3.40;;;-2.30;99.90;;;;;;5059348;28;20192;-76
2021/12/21 03:02:12;;;;;;;5.83;3.80;;;-2.30;99.90;;;;;;5060283;28;20447;-77
2021/12/21 03:04:41;;;;;;;7.43;3.90;;;-2.30;99.90;;;;;;5059893;28;20711;-77
2021/12/21 03:12:12;;;;;;;12.07;4.43;;;-2.30;99.90;;;;;;5059548;28;20196;-76
2021/12/21 03:14:39;;;;;;;8.47;4.60;;;-2.30;99.90;;;;;;5058967;28;20166;-76
2021/12/21 03:17:06;;;;;;;9.70;4.10;;;-2.30;99.90;;;;;;5041147;28;20186;-76
2021/12/21 03:19:31;;;;;;;10.13;4.00;;;-2.30;99.90;;;;;;5041053;28;20185;-76
2021/12/21 03:21:57;;;;;;;7.17;3.97;;;-2.30;99.90;;;;;;5058862;28;20204;-77
2021/12/21 03:24:22;;;;;;;10.43;4.30;;;-2.30;99.90;;;;;;5058991;28;20207;-77
2021/12/21 03:26:50;;;;;;;10.13;4.03;;;-2.40;99.90;;;;;;5041123;28;20190;-76
2021/12/21 03:29:16;;;;;;;9.57;3.97;;;-2.40;99.90;;;;;;5058853;28;20195;-76
2021/12/21 03:31:41;;;;;;;6.80;3.60;;;-2.40;99.90;;;;;;5040707;28;20266;-76
2021/12/21 03:34:07;;;;;;;6.37;3.87;;;-2.40;99.90;;;;;;5058786;28;20215;-76
2021/12/21 03:36:33;;;;;;;8.63;4.20;;;-2.40;99.90;;;;;;5040240;28;20211;-76
2021/12/21 03:41:26;;;;;;;5.60;3.60;;;-2.50;99.90;;;;;;5058966;28;20659;-77
2021/12/21 03:43:51;;;;;;;7.93;3.00;;;-2.60;99.90;;;;;;5058850;28;20603;-77
2021/12/21 03:46:17;;;;;;;5.50;3.53;;;-2.70;99.90;;;;;;5040258;28;20193;-77
2021/12/21 03:48:47;;;;;;;8.57;4.20;;;-2.70;99.90;;;;;;5040863;28;20250;-77
2021/12/21 03:51:18;;;;;;;5.40;2.77;;;-2.70;99.90;;;;;;5058332;28;20176;-77
2021/12/21 03:53:45;;;;;;;5.93;3.50;;;-2.70;99.90;;;;;;5058371;28;20219;-77
2021/12/21 03:56:36;;;;;;;6.37;3.97;;;-2.70;99.90;;;;;;5057935;28;20176;-77
2021/12/21 03:59:02;;;;;;;7.70;3.30;;;-2.70;99.90;;;;;;5057312;28;20177;-77
2021/12/21 04:01:28;;;;;;;8.50;3.80;;;-2.80;99.90;;;;;;5057170;28;20172;-76
2021/12/21 04:03:53;;;;;;;8.33;3.60;;;-2.80;99.90;;;;;;5057540;28;20657;-77
2021/12/21 04:06:19;;;;;;;8.13;3.13;;;-2.80;99.90;;;;;;5057526;28;20554;-77
2021/12/21 04:08:45;;;;;;;7.73;3.20;;;-2.80;99.90;;;;;;5039474;28;20335;-77
2021/12/21 04:11:10;;;;;;;12.07;3.90;;;-2.80;99.90;;;;;;5056913;28;20176;-77
2021/12/21 04:13:36;;;;;;;9.97;4.43;;;-2.80;99.90;;;;;;5057218;28;20196;-76
2021/12/21 04:16:04;;;;;;;7.90;4.03;;;-2.80;99.90;;;;;;5056647;28;20176;-77
2021/12/21 04:18:34;;;;;;;9.97;3.90;;;-2.90;99.90;;;;;;5039148;28;20185;-76
2021/12/21 04:21:00;;;;;;;10.50;4.17;;;-2.80;99.90;;;;;;5056567;28;20156;-77
2021/12/21 04:23:26;;;;;;;8.93;4.00;;;-2.90;99.90;;;;;;5056651;28;20685;-77
2021/12/21 04:25:51;;;;;;;10.03;4.30;;;-2.90;99.90;;;;;;5056597;28;20667;-76
2021/12/21 04:28:17;;;;;;;10.00;4.30;;;-2.90;99.90;;;;;;5056403;28;20265;-77
2021/12/21 04:30:42;;;;;;;6.53;3.83;;;-2.90;99.90;;;;;;5056197;28;20643;-77
2021/12/21 04:33:08;;;;;;;7.77;3.73;;;-2.90;99.90;;;;;;5056763;28;20281;-77
2021/12/21 04:35:33;;;;;;;9.13;4.53;;;-2.90;99.90;;;;;;5055952;28;20184;-76
2021/12/21 04:38:12;;;;;;;6.23;3.80;;;-2.80;99.90;;;;;;5056526;28;20238;-77
2021/12/21 04:40:42;;;;;;;7.83;3.93;;;-2.90;99.90;;;;;;5038913;28;20183;-77
2021/12/21 04:43:08;;;;;;;9.30;3.73;;;-2.80;99.90;;;;;;5056362;28;20195;-77
2021/12/21 04:45:33;;;;;;;7.23;3.60;;;-2.80;99.90;;;;;;5038546;28;20187;-77
2021/12/21 04:47:59;;;;;;;8.77;3.60;;;-2.90;99.90;;;;;;5056697;28;20225;-76
2021/12/21 04:50:25;;;;;;;7.07;3.70;;;-2.90;99.90;;;;;;5056539;28;20552;-77
2021/12/21 04:52:51;;;;;;;10.30;3.80;;;-2.90;99.90;;;;;;5038384;28;20305;-77
2021/12/21 04:55:16;;;;;;;6.10;3.37;;;-2.80;99.90;;;;;;5056582;28;20349;-77
2021/12/21 04:57:43;;;;;;;8.20;3.63;;;-2.90;99.90;;;;;;5038084;28;20664;-77
2021/12/21 05:00:10;;;;;;;7.80;3.67;;;-2.90;99.90;;;;;;5056063;28;20233;-77
2021/12/21 05:02:36;;;;;;;5.63;3.57;;;-2.90;99.90;;;;;;5039190;28;20205;-76
2021/12/21 05:05:02;;;;;;;8.60;3.93;;;-2.90;99.90;;;;;;5056647;28;20180;-77
2021/12/21 05:07:30;;;;;;;5.10;3.53;;;-3.00;99.90;;;;;;5057091;28;20188;-76
2021/12/21 05:09:57;;;;;;;6.80;3.60;;;-3.10;99.90;;;;;;5038515;28;20216;-77
2021/12/21 05:12:24;;;;;;;9.90;4.00;;;-3.10;99.90;;;;;;5038807;28;20200;-77
2021/12/21 05:14:50;;;;;;;12.73;3.90;;;-3.00;99.90;;;;;;5039008;28;20181;-77
2021/12/21 05:17:16;;;;;;;5.90;3.43;;;-3.00;99.90;;;;;;5038127;28;20186;-77
2021/12/21 05:19:41;;;;;;;7.87;3.60;;;-3.00;99.90;;;;;;5040235;28;20192;-77
2021/12/21 05:22:07;;;;;;;14.50;4.13;;;-2.90;99.90;;;;;;5060318;28;20211;-77
2021/12/21 05:24:33;;;;;;;9.87;4.40;;;-3.00;99.90;;;;;;5060756;28;20193;-77
2021/12/21 05:26:58;;;;;;;6.03;3.73;;;-3.00;99.90;;;;;;5060198;28;20195;-77
2021/12/21 05:29:24;;;;;;;7.30;3.93;;;-3.00;99.90;;;;;;5059459;28;20235;-77
2021/12/21 05:31:50;;;;;;;10.97;3.73;;;-3.00;99.90;;;;;;5059541;28;20196;-77
2021/12/21 05:34:16;;;;;;;7.90;4.03;;;-3.10;99.90;;;;;;5041192;28;20186;-77
2021/12/21 05:36:42;;;;;;;7.73;3.57;;;-3.10;99.90;;;;;;5059514;28;20176;-77
2021/12/21 05:39:16;;;;;;;12.20;3.60;;;-3.10;99.90;;;;;;5059461;28;20237;-77
2021/12/21 05:41:52;;;;;;;6.63;3.80;;;-3.10;99.90;;;;;;5041442;28;20195;-77
2021/12/21 05:44:20;;;;;;;7.30;3.80;;;-3.10;99.90;;;;;;5041790;28;20191;-77
2021/12/21 05:46:47;;;;;;;8.50;3.97;;;-3.10;99.90;;;;;;5041998;28;20222;-77
2021/12/21 05:49:13;;;;;;;7.07;3.57;;;-3.10;99.90;;;;;;5059867;28;20724;-78
2021/12/21 05:51:39;;;;;;;7.50;4.13;;;-3.10;99.90;;;;;;5058637;28;20211;-78
2021/12/21 05:54:04;;;;;;;6.57;3.90;;;-3.10;99.90;;;;;;5059276;28;20226;-78
2021/12/21 05:56:30;;;;;;;5.43;3.60;;;-3.10;99.90;;;;;;5058597;28;20180;-78
2021/12/21 05:58:57;;;;;;;7.70;3.63;;;-3.20;99.90;;;;;;5040651;28;20557;-78
2021/12/21 06:01:23;;;;;;;7.17;3.90;;;-3.20;99.90;;;;;;5058429;28;20168;-78
2021/12/21 06:03:48;;;;;;;10.93;3.93;;;-3.20;99.90;;;;;;5059510;28;20234;-78
2021/12/21 06:06:16;;;;;;;8.77;3.83;;;-3.20;99.90;;;;;;5042098;28;20184;-77
2021/12/21 06:08:44;;;;;;;6.17;3.53;;;-3.20;99.90;;;;;;5058664;28;20199;-76
2021/12/21 06:11:09;;;;;;;10.63;3.97;;;-3.30;99.90;;;;;;5060173;28;20174;-77
2021/12/21 06:16:29;;;;;;;7.87;3.80;;;-3.30;99.90;;;;;;5060782;28;20167;-77
2021/12/21 06:26:56;;;;;;;7.83;4.10;;;-3.30;99.90;;;;;;5058779;28;20168;-77
2021/12/21 06:29:21;;;;;;;6.37;4.10;;;-3.30;99.90;;;;;;5058835;28;20734;-76
2021/12/21 06:31:48;;;;;;;8.23;4.47;;;-3.30;99.90;;;;;;5040168;28;20243;-76
2021/12/21 06:34:13;;;;;;;10.40;3.83;;;-3.30;99.90;;;;;;5058099;28;20199;-76
2021/12/21 06:36:39;;;;;;;7.67;4.30;;;-3.30;99.90;;;;;;5059068;28;20253;-77
2021/12/21 06:39:08;;;;;;;8.83;4.10;;;-3.30;99.90;;;;;;5059328;28;20188;-76
2021/12/21 06:41:35;;;;;;;9.10;3.83;;;-3.30;99.90;;;;;;5059244;28;20213;-75
2021/12/21 06:44:03;;;;;;;7.77;4.43;;;-3.30;99.90;;;;;;5039074;28;20191;-75
2021/12/21 06:52:00;;;;;;;9.77;4.23;;;-3.30;99.90;;;;;;5056505;28;20249;-75
2021/12/21 06:54:26;;;;;;;6.43;3.80;;;-3.30;99.90;;;;;;5038359;28;20221;-75
2021/12/21 06:56:52;;;;;;;9.23;4.10;;;-3.30;99.90;;;;;;5038740;28;20175;-75
2021/12/21 06:59:17;;;;;;;7.77;4.33;;;-3.40;99.90;;;;;;5058195;28;20192;-74
2021/12/21 07:01:43;;;;;;;7.07;4.13;;;-3.30;99.90;;;;;;5057276;23;20228;-95
2021/12/21 07:04:11;;;;;;;8.03;3.67;;;-3.40;99.90;;;;;;5080548;28;20251;-95
2021/12/21 07:06:39;;;;;;;7.70;4.17;;;-3.40;99.90;;;;;;5056318;28;20172;-94
2021/12/21 07:19:33;;;;;;;7.63;4.43;;;-3.50;99.90;;;;;;5075343;28;20565;-77
2021/12/21 07:21:59;;;;;;;8.83;4.23;;;-3.50;99.90;;;;;;5074648;28;20703;-77
2021/12/21 07:24:25;;;;;;;9.27;4.67;;;-3.50;99.90;;;;;;5074610;28;20210;-77
2021/12/21 07:26:51;;;;;;;8.83;3.80;;;-3.50;99.90;;;;;;5056556;28;20187;-78
2021/12/21 07:29:17;;;;;;;6.40;4.50;;;-3.50;99.90;;;;;;5056469;28;20210;-78
2021/12/21 07:31:43;;;;;;;10.27;3.83;;;-3.50;99.90;;;;;;5074321;28;20676;-77
2021/12/21 07:34:09;;;;;;;8.57;4.27;;;-3.50;99.90;;;;;;5074321;28;20568;-77
2021/12/21 07:36:35;;;;;;;6.87;4.07;;;-3.50;99.90;;;;;;5074148;28;20179;-77
2021/12/21 07:39:03;;;;;;;7.33;4.23;;;-3.60;99.90;;;;;;5074094;28;20191;-77
2021/12/21 07:41:29;;;;;;;9.53;4.73;;;-3.50;99.90;;;;;;5073824;28;20203;-77
2021/12/21 07:43:55;;;;;;;7.70;4.70;;;-3.60;99.90;;;;;;5074141;28;20640;-77
2021/12/21 07:46:20;;;;;;;9.37;4.33;;;-3.60;99.90;;;;;;5075178;28;20198;-77
2021/12/21 07:48:46;;;;;;;9.87;3.80;;;-3.60;99.90;;;;;;5058275;28;20233;-77
2021/12/21 07:51:12;;;;;;;9.87;4.30;;;-3.60;99.90;;;;;;5073915;28;20660;-77
2021/12/21 07:53:38;;;;;;;7.43;4.73;;;-3.60;99.90;;;;;;5074530;28;20217;-78
2021/12/21 07:56:04;;;;;;;10.57;4.50;;;-3.60;99.90;;;;;;5075486;28;20232;-77
2021/12/21 07:58:31;;;;;;;7.07;4.37;;;-3.60;99.90;;;;;;5056894;28;20552;-77
2021/12/21 08:00:59;;;;;;;7.47;4.10;;;-3.60;99.90;;;;;;5078212;28;20201;-77
2021/12/21 08:03:25;;;;;;;9.03;4.40;;;-3.60;99.90;;;;;;5057009;28;20183;-78
2021/12/21 08:05:53;;;;;;;7.27;4.07;;;-3.50;99.90;;;;;;5077973;28;20240;-77
2021/12/21 08:08:22;;;;;;;10.73;4.60;;;-3.50;99.90;;;;;;5064870;28;20209;-78
2021/12/21 08:10:55;;;;;;;9.00;4.53;;;-3.40;99.90;;;;;;5056346;28;20552;-77
2021/12/21 08:13:21;;;;;;;8.80;4.40;;;-3.40;99.90;;;;;;5074386;28;20159;-77
2021/12/21 08:15:47;;;;;;;12.33;5.10;;;-3.40;99.90;;;;;;5074066;28;20213;-77
2021/12/21 08:18:14;;;;;;;8.97;4.27;;;-3.50;99.90;;;;;;5056944;28;20631;-78
2021/12/21 08:20:40;;;;;;;8.13;4.40;;;-3.50;99.90;;;;;;5074002;28;20177;-77
2021/12/21 08:23:06;;;;;;;7.93;4.23;;;-3.40;99.90;;;;;;5074512;28;20171;-78
2021/12/21 08:25:32;;;;;;;6.53;3.80;;;-3.40;99.90;;;;;;5056661;28;20191;-77
2021/12/21 08:27:59;;;;;;;10.13;4.53;;;-3.50;99.90;;;;;;5055835;28;20782;-77
2021/12/21 08:30:26;;;;;;;10.50;4.60;;;-3.40;99.90;;;;;;5073664;28;20184;-77
2021/12/21 08:32:52;;;;;;;11.70;4.70;;;-3.40;99.90;;;;;;5073762;28;20198;-78
2021/12/21 08:35:17;;;;;;;10.33;4.97;;;-3.40;99.90;;;;;;5073578;28;20284;-77
2021/12/21 08:37:51;;;;;;;10.43;4.03;;;-3.40;99.90;;;;;;5055891;28;20293;-78
2021/12/21 08:40:21;;;;;;;7.70;4.07;;;-3.40;99.90;;;;;;5073725;28;20163;-78
2021/12/21 08:42:49;;;;;;;7.03;4.50;;;-3.40;99.90;;;;;;5056341;28;20210;-78
2021/12/21 08:45:15;;;;;;;10.33;4.53;;;-3.30;99.90;;;;;;5073783;28;20525;-78
2021/12/21 08:47:41;;;;;;;10.43;5.03;;;-3.30;99.90;;;;;;5073848;28;20179;-77
2021/12/21 08:50:09;;;;;;;10.17;4.70;;;-3.30;99.90;;;;;;5055870;28;20211;-78
2021/12/21 08:52:36;;;;;;;8.37;4.93;;;-3.20;99.90;;;;;;5054594;28;20230;-78
2021/12/21 08:55:06;;;;;;;8.27;4.70;;;-3.20;99.90;;;;;;5075902;28;20167;-78
2021/12/21 08:57:33;;;;;;;16.40;6.20;;;-3.10;99.90;;;;;;5078173;28;20179;-77
2021/12/21 08:59:58;;;;;;;14.80;5.83;;;-3.10;99.90;;;;;;5060214;28;20241;-78
2021/12/21 09:02:24;;;;;;;8.73;5.60;;;-3.10;99.90;;;;;;5061315;28;20215;-77
2021/12/21 09:04:49;;;;;;;8.83;5.10;;;-3.00;99.90;;;;;;5061126;28;20626;-78
2021/12/21 09:07:15;;;;;;;13.17;5.73;;;-3.00;99.90;;;;;;5079834;28;20176;-79
2021/12/21 09:09:41;;;;;;;12.03;6.30;;;-2.90;99.90;;;;;;5061980;28;20210;-79
2021/12/21 09:12:07;;;;;;;15.17;7.37;;;-2.90;99.90;;;;;;5080554;28;20202;-79
2021/12/21 09:14:33;;;;;;;12.97;7.13;;;-2.80;99.90;;;;;;5080168;28;20183;-78
2021/12/21 09:17:00;;;;;;;11.00;6.70;;;-2.80;99.90;;;;;;5080199;28;20272;-79
2021/12/21 09:19:25;;;;;;;13.53;7.40;;;-2.70;99.90;;;;;;5080099;28;20193;-79
2021/12/21 09:21:51;;;;;;;10.80;6.33;;;-2.70;99.90;;;;;;5079891;28;20655;-78
2021/12/21 09:24:16;;;;;;;10.87;6.13;;;-2.60;99.90;;;;;;5062529;28;20190;-79
2021/12/21 09:26:42;;;;;;;13.63;6.57;;;-2.60;99.90;;;;;;5063443;28;20210;-78
2021/12/21 09:29:08;;;;;;;13.17;5.93;;;-2.50;99.90;;;;;;5064156;28;20211;-78
2021/12/21 09:31:35;;;;;;;12.67;6.70;;;-2.50;99.90;;;;;;5083246;28;20198;-78
2021/12/21 09:34:00;;;;;;;9.00;6.53;;;-2.50;99.90;;;;;;5067591;28;20244;-78
2021/12/21 09:36:28;;;;;;;11.43;5.83;;;-2.40;99.90;;;;;;5085526;28;20176;-79
2021/12/21 09:38:54;;;;;;;16.20;5.87;;;-2.40;99.90;;;;;;5078997;28;20625;-78
2021/12/21 09:41:20;;;;;;;10.13;5.40;;;-2.30;99.90;;;;;;5079170;28;20241;-79
2021/12/21 09:43:45;;;;;;;10.23;5.67;;;-2.30;99.90;;;;;;5078039;28;20185;-78
2021/12/21 09:46:12;;;;;;;13.03;6.77;;;-2.30;99.90;;;;;;5079143;28;20263;-79
2021/12/21 09:48:37;;;;;;;12.13;6.40;;;-2.20;99.90;;;;;;5060868;28;20290;-78
2021/12/21 09:51:04;;;;;;;7.87;5.50;;;-2.10;99.90;;;;;;5078415;28;20614;-77
2021/12/21 09:53:33;;;;;;;10.90;6.23;;;-2.00;99.90;;;;;;5078217;28;20172;-78
2021/12/21 09:56:00;;;;;;;12.50;6.10;;;-2.00;99.90;;;;;;5060400;28;20180;-78
2021/12/21 09:58:25;;;;;;;12.07;6.63;;;-1.90;99.90;;;;;;5060425;28;20240;-78
2021/12/21 10:00:51;;;;;;;9.67;5.83;;;-1.90;99.90;;;;;;5059855;28;20545;-78
2021/12/21 10:03:17;;;;;;;14.23;6.70;;;-1.80;99.90;;;;;;5077853;28;20180;-79
2021/12/21 10:05:44;;;;;;;9.80;6.07;;;-1.80;99.90;;;;;;5059524;28;20213;-77
2021/12/21 10:08:16;;;;;;;13.07;7.00;;;-1.80;99.90;;;;;;5077613;28;20530;-78
2021/12/21 10:10:50;;;;;;;13.00;6.33;;;-1.70;99.90;;;;;;5077664;28;20633;-79
2021/12/21 10:13:25;;;;;;;10.47;6.13;;;-1.70;99.90;;;;;;5078083;28;20173;-79
2021/12/21 10:15:55;;;;;;;14.23;5.73;;;-1.60;99.90;;;;;;5059259;28;20317;-79
2021/12/21 10:18:32;;;;;;;8.07;5.70;;;-1.60;99.90;;;;;;5077569;28;20199;-80
2021/12/21 10:21:00;;;;;;;9.73;5.27;;;-1.60;99.90;;;;;;5077432;28;20208;-79
2021/12/21 10:23:31;;;;;;;11.63;5.47;;;-1.50;99.90;;;;;;5077705;28;20178;-78
2021/12/21 10:26:06;;;;;;;10.10;5.93;;;-1.40;99.90;;;;;;5077693;28;20239;-78
2021/12/21 10:28:39;;;;;;;19.00;6.40;;;-1.40;99.90;;;;;;5059529;28;20208;-78
2021/12/21 10:31:08;;;;;;;10.03;5.40;;;-1.30;99.90;;;;;;5059989;28;20199;-79
2021/12/21 10:33:35;;;;;;;8.87;5.73;;;-1.20;99.90;;;;;;5077148;28;20168;-78
2021/12/21 10:36:04;;;;;;;10.07;6.17;;;-1.20;99.90;;;;;;5077221;28;20586;-78
2021/12/21 10:38:36;;;;;;;11.07;6.13;;;-1.10;99.90;;;;;;5059187;28;20188;-77
2021/12/21 10:41:17;;;;;;;18.47;6.33;;;-1.00;99.90;;;;;;5077933;28;20200;-79
2021/12/21 10:43:43;;;;;;;11.53;6.60;;;-1.00;99.90;;;;;;5078309;28;20169;-78
2021/12/21 10:46:09;;;;;;;12.23;6.53;;;-0.90;99.90;;;;;;5077128;28;20230;-78
2021/12/21 10:48:37;;;;;;;12.33;7.87;;;-0.80;99.90;;;;;;5079578;28;20206;-78
2021/12/21 10:51:08;;;;;;;11.63;7.37;;;-0.70;99.90;;;;;;5078776;28;20670;-78
2021/12/21 10:53:34;;;;;;;14.43;7.70;;;-0.60;99.90;;;;;;5080825;28;20241;-78
2021/12/21 10:56:07;;;;;;;13.80;6.33;;;-0.50;99.90;;;;;;5078718;28;20184;-78
2021/12/21 10:58:37;;;;;;;12.03;5.93;;;-0.50;99.90;;;;;;5059870;28;20189;-78
2021/12/21 11:01:05;;;;;;;10.80;6.30;;;-0.40;99.90;;;;;;5060326;28;20200;-78
2021/12/21 11:03:38;;;;;;;11.57;6.47;;;-0.30;99.90;;;;;;5059383;28;20670;-78
2021/12/21 11:06:12;;;;;;;12.90;6.37;;;-0.20;99.90;;;;;;5077185;28;20191;-78
2021/12/21 11:08:40;;;;;;;10.37;6.33;;;-0.10;99.90;;;;;;5077597;28;20204;-79
2021/12/21 11:11:10;;;;;;;13.47;6.13;;;0.00;99.90;;;;;;5078295;28;20208;-78
2021/12/21 11:13:38;;;;;;;12.37;6.43;;;0.00;99.90;;;;;;5077561;28;20169;-78
2021/12/21 11:16:07;;;;;;;8.30;5.67;;;0.10;99.90;;;;;;5059542;28;20536;-78
2021/12/21 11:18:37;;;;;;;10.37;5.50;;;0.20;99.90;;;;;;5059537;28;20252;-78
2021/12/21 11:21:06;;;;;;;12.07;6.10;;;0.30;99.90;;;;;;5060903;28;20304;-79
2021/12/21 11:23:33;;;;;;;8.03;4.50;;;0.40;99.90;;;;;;5068686;28;20192;-78
2021/12/21 11:26:00;;;;;;;7.03;4.70;;;0.50;99.90;;;;;;5076455;28;20221;-78
2021/12/21 11:28:27;;;;;;;7.07;5.00;;;0.60;99.90;;;;;;5076105;28;20692;-79
2021/12/21 11:31:00;;;;;;;6.90;4.00;;;0.70;99.90;;;;;;5075641;28;20533;-78
2021/12/21 11:33:29;;;;;;;11.53;4.83;;;0.70;99.90;;;;;;5075581;28;20260;-78
2021/12/21 11:38:39;;;;;;;6.90;4.37;;;0.90;99.90;;;;;;5075536;28;20184;-78
2021/12/21 11:41:06;;;;;;;8.07;4.00;;;1.00;99.90;;;;;;5075293;28;20201;-78
2021/12/21 11:44:01;;;;;;;8.03;4.27;;;1.10;99.90;;;;;;5074987;28;20269;-78
2021/12/21 11:46:44;;;;;;;8.23;4.70;;;1.20;99.90;;;;;;5075394;28;20172;-79
2021/12/21 11:49:16;;;;;;;8.07;3.97;;;1.30;99.90;;;;;;5057614;28;20671;-78
2021/12/21 11:51:42;;;;;;;8.10;4.40;;;1.30;99.90;;;;;;5057401;28;20677;-79
2021/12/21 11:54:20;;;;;;;9.80;4.40;;;1.40;99.90;;;;;;5075867;28;20170;-79
2021/12/21 11:56:46;;;;;;;7.90;4.17;;;1.40;99.90;;;;;;5075479;28;20193;-79
2021/12/21 11:59:19;;;;;;;5.83;4.17;;;1.50;99.90;;;;;;5057499;28;20240;-78
2021/12/21 12:01:46;;;;;;;7.57;4.17;;;1.50;99.90;;;;;;5075010;28;20272;-79
2021/12/21 12:04:12;;;;;;;8.23;4.17;;;1.60;99.90;;;;;;5057582;28;20190;-79
2021/12/21 12:06:49;;;;;;;8.37;4.70;;;1.60;99.90;;;;;;5057161;28;20205;-79
2021/12/21 12:09:32;;;;;;;7.93;3.73;;;1.70;99.90;;;;;;5075760;28;20225;-79
2021/12/21 12:12:17;;;;;;;6.97;3.63;;;1.70;99.90;;;;;;5075413;28;20198;-79
2021/12/21 12:14:58;;;;;;;9.20;3.90;;;1.70;99.90;;;;;;5057608;28;20261;-79
2021/12/21 12:17:26;;;;;;;8.60;3.70;;;1.80;99.90;;;;;;5075614;28;20610;-78
2021/12/21 12:19:55;;;;;;;8.00;3.80;;;1.80;99.90;;;;;;5057239;28;20268;-78
2021/12/21 12:22:38;;;;;;;5.37;3.70;;;1.80;99.90;;;;;;5056855;28;20214;-79
2021/12/21 12:25:08;;;;;;;9.20;3.87;;;1.80;99.90;;;;;;5075140;28;20224;-78
2021/12/21 12:27:43;;;;;;;5.27;3.60;;;1.90;99.90;;;;;;5057014;28;20189;-78
2021/12/21 12:30:18;;;;;;;6.03;3.70;;;1.90;99.90;;;;;;5075396;28;20198;-78
2021/12/21 12:32:55;;;;;;;7.77;3.33;;;2.00;99.90;;;;;;5075000;28;20639;-79
2021/12/21 12:35:25;;;;;;;5.17;3.60;;;2.00;99.90;;;;;;5074517;28;20163;-78
2021/12/21 12:38:03;;;;;;;9.03;3.60;;;2.00;99.90;;;;;;5074969;28;20171;-78
2021/12/21 12:40:40;;;;;;;6.90;3.00;;;2.10;99.90;;;;;;5075010;28;20219;-78
2021/12/21 12:43:18;;;;;;;7.00;3.13;;;2.20;99.90;;;;;;5074851;28;20193;-78
2021/12/21 12:46:01;;;;;;;6.20;2.83;;;2.30;99.90;;;;;;5057014;28;20223;-77
2021/12/21 12:48:32;;;;;;;5.67;3.10;;;2.40;99.90;;;;;;5057461;28;20210;-79
2021/12/21 12:51:02;;;;;;;7.60;3.07;;;2.50;99.90;;;;;;5075966;28;20187;-78
2021/12/21 12:53:43;;;;;;;5.97;3.00;;;2.60;99.90;;;;;;5057695;28;20215;-79
2021/12/21 12:56:12;;;;;;;5.87;3.23;;;2.70;99.90;;;;;;5075719;28;20179;-79
2021/12/21 12:58:54;;;;;;;6.40;3.00;;;2.70;99.90;;;;;;5058006;28;20660;-78
2021/12/21 13:01:24;;;;;;;5.80;3.17;;;2.70;99.90;;;;;;5058217;28;20340;-78
2021/12/21 13:03:58;;;;;;;6.83;3.23;;;2.80;99.90;;;;;;5077389;28;20577;-78
2021/12/21 13:06:30;;;;;;;6.57;3.30;;;2.80;99.90;;;;;;5074995;28;20173;-78
2021/12/21 13:08:55;;;;;;;6.93;3.37;;;2.80;99.90;;;;;;5078337;28;20206;-78
2021/12/21 13:11:25;;;;;;;4.73;2.80;;;2.80;99.90;;;;;;5063146;28;20252;-78
2021/12/21 13:13:53;;;;;;;10.80;3.40;;;2.90;99.90;;;;;;5057293;28;20171;-78
2021/12/21 13:16:25;;;;;;;9.27;3.63;;;2.80;99.90;;;;;;5073969;28;20201;-78
2021/12/21 13:18:52;;;;;;;5.90;2.90;;;2.80;99.90;;;;;;5055964;28;20193;-78
2021/12/21 13:21:25;;;;;;;9.17;3.37;;;2.80;99.90;;;;;;5073635;28;20584;-78
2021/12/21 13:24:05;;;;;;;6.60;3.47;;;2.80;99.90;;;;;;5055753;28;20187;-77
2021/12/21 13:26:36;;;;;;;9.67;3.07;;;2.70;99.90;;;;;;5073884;28;20198;-78
2021/12/21 13:29:04;;;;;;;7.83;3.10;;;2.80;99.90;;;;;;5073485;28;20229;-77
2021/12/21 13:31:30;;;;;;;7.17;3.20;;;2.70;99.90;;;;;;5055731;28;20576;-78
2021/12/21 13:33:58;;;;;;;6.13;3.23;;;2.80;99.90;;;;;;5056393;28;20265;-78
2021/12/21 13:36:38;;;;;;;6.53;3.13;;;2.80;99.90;;;;;;5055834;28;20179;-78
2021/12/21 13:39:24;;;;;;;7.53;3.10;;;2.90;99.90;;;;;;5055608;28;20182;-78
2021/12/21 13:41:59;;;;;;;5.93;2.50;;;2.90;99.90;;;;;;5076935;28;20220;-77
2021/12/21 13:44:29;;;;;;;6.50;3.00;;;2.90;99.90;;;;;;5077809;28;20201;-78
2021/12/21 13:46:58;;;;;;;9.50;3.30;;;2.90;99.90;;;;;;5077137;28;20187;-77
2021/12/21 13:49:24;;;;;;;6.57;2.77;;;3.00;99.90;;;;;;5077424;28;20199;-78
2021/12/21 13:51:52;;;;;;;6.47;3.03;;;3.00;99.90;;;;;;5059496;28;20195;-78
2021/12/21 13:54:19;;;;;;;8.03;3.40;;;3.00;99.90;;;;;;5077004;28;20179;-78
2021/12/21 13:56:45;;;;;;;10.20;2.80;;;3.00;99.90;;;;;;5077565;28;20214;-80
2021/12/21 13:59:12;;;;;;;6.03;2.70;;;2.90;99.90;;;;;;5077394;28;20538;-79
2021/12/21 14:01:38;;;;;;;4.53;3.00;;;2.80;99.90;;;;;;5076996;28;20276;-78
2021/12/21 14:04:09;;;;;;;9.63;3.17;;;2.80;99.90;;;;;;5077453;28;20175;-78
2021/12/21 14:06:37;;;;;;;5.03;2.47;;;2.70;99.90;;;;;;5077007;28;20659;-78